Terminal Aerodrome Forecast
Issued by NWS

Home | Current Version | Previous Version | Text Only | Print | Product List | Glossary On
Versions: 1 2 3 4 5 6 7 8 9 10 11 12 13 14
088
FTPA31 PHFO 260523
TAFHJR
TAF
PHJR 260523Z 2606/2706 03005KT P6SM FEW025 FEW050
     FM262100 12008KT P6SM FEW035 SCT060
     FM262300 14009KT P6SM VCSH SCT035 BKN050
     FM270500 03005KT P6SM FEW025 FEW050=

USA.gov is the U.S. government's official web portal to all federal, state and local government web resources and services.